Time;durP1;ratioP1;P1;durP2;ratioP2;P2;SDS_P1;SDS_P2;PMS_P1;PMS_P2;Temp;Humidity;BMP_temperature;BMP_pressure;BME280_temperature;BME280_humidity;BME280_pressure;Samples;Min_cycle;Max_cycle;Signal;HPM_P1;HPM_P2
2022/10/06 00:01:18;;;;;;;5.18;1.38;;;13.70;99.90;;;;;;5117503;27;20474;-80
2022/10/06 00:03:45;;;;;;;5.28;1.50;;;13.80;99.90;;;;;;5153827;27;20090;-80
2022/10/06 00:06:13;;;;;;;9.02;1.30;;;13.70;99.90;;;;;;5145804;27;20047;-80
2022/10/06 00:08:41;;;;;;;6.55;1.20;;;13.70;99.90;;;;;;5133114;27;20038;-80
2022/10/06 00:11:08;;;;;;;6.07;1.20;;;13.70;99.90;;;;;;5132283;27;20039;-80
2022/10/06 00:13:34;;;;;;;5.70;0.95;;;13.70;99.90;;;;;;5127554;27;20092;-80
2022/10/06 00:16:00;;;;;;;8.57;1.42;;;13.70;99.90;;;;;;5133862;27;20047;-80
2022/10/06 00:18:28;;;;;;;7.13;1.20;;;13.70;99.90;;;;;;5134768;27;20050;-80
2022/10/06 00:20:55;;;;;;;4.18;1.30;;;13.80;99.90;;;;;;5117474;27;20122;-80
2022/10/06 00:23:22;;;;;;;4.57;1.05;;;13.80;99.90;;;;;;5130965;27;20050;-80
2022/10/06 00:25:47;;;;;;;4.97;1.38;;;13.80;99.90;;;;;;5113976;27;20487;-80
2022/10/06 00:28:13;;;;;;;3.95;1.20;;;13.70;99.90;;;;;;5096085;27;20046;-81
2022/10/06 00:30:39;;;;;;;7.38;1.42;;;13.80;99.90;;;;;;5133285;27;20108;-81
2022/10/06 00:33:05;;;;;;;4.40;1.02;;;13.80;99.90;;;;;;5151160;27;20428;-81
2022/10/06 00:35:33;;;;;;;6.75;1.30;;;13.70;99.90;;;;;;5128634;27;20039;-81
2022/10/06 00:38:00;;;;;;;7.35;1.63;;;13.70;99.90;;;;;;5132660;27;20039;-80
2022/10/06 00:40:26;;;;;;;6.38;1.55;;;13.70;99.90;;;;;;5130466;27;20133;-80
2022/10/06 00:43:05;;;;;;;8.00;1.30;;;13.70;99.90;;;;;;5151433;27;20031;-81
2022/10/06 00:45:41;;;;;;;5.78;1.40;;;13.90;99.90;;;;;;5107586;28;20388;-81
2022/10/06 00:48:17;;;;;;;6.93;1.23;;;13.70;99.90;;;;;;5130625;27;20034;-81
2022/10/06 00:50:44;;;;;;;5.15;1.23;;;13.70;99.90;;;;;;5146612;27;20035;-80
2022/10/06 00:53:11;;;;;;;6.30;1.33;;;13.70;99.90;;;;;;5119705;27;20034;-80
2022/10/06 00:55:37;;;;;;;5.05;1.38;;;13.70;99.90;;;;;;5149902;27;20373;-80
2022/10/06 00:58:04;;;;;;;7.43;1.30;;;13.70;99.90;;;;;;5137450;27;20046;-80
2022/10/06 01:00:30;;;;;;;6.10;1.55;;;13.70;99.90;;;;;;5118791;27;20042;-81
2022/10/06 01:03:10;;;;;;;6.30;1.45;;;13.60;99.90;;;;;;5135541;27;20490;-81
2022/10/06 01:05:45;;;;;;;6.65;1.98;;;13.60;99.90;;;;;;5139418;27;20035;-81
2022/10/06 01:08:10;;;;;;;8.35;1.33;;;13.60;99.90;;;;;;5139440;27;20039;-81
2022/10/06 01:10:36;;;;;;;6.90;1.40;;;13.50;99.90;;;;;;5103615;27;20031;-81
2022/10/06 01:13:02;;;;;;;5.70;1.48;;;13.50;99.90;;;;;;5136447;27;20052;-81
2022/10/06 01:15:28;;;;;;;6.70;1.27;;;13.50;99.90;;;;;;5118993;27;20034;-81
2022/10/06 01:18:00;;;;;;;8.00;1.52;;;13.50;99.90;;;;;;5120856;27;20053;-81
2022/10/06 01:20:28;;;;;;;8.07;1.45;;;13.50;99.90;;;;;;5137568;27;20027;-81
2022/10/06 01:23:05;;;;;;;6.65;1.40;;;13.50;99.90;;;;;;5118049;27;20039;-81
2022/10/06 01:25:33;;;;;;;7.10;1.77;;;13.50;99.90;;;;;;5144652;27;20042;-81
2022/10/06 01:28:01;;;;;;;6.20;1.80;;;13.50;99.90;;;;;;5119736;27;20058;-81
2022/10/06 01:30:41;;;;;;;5.40;1.50;;;13.40;99.90;;;;;;5133156;27;20407;-81
2022/10/06 01:33:06;;;;;;;8.50;1.65;;;13.40;99.90;;;;;;5137937;27;20102;-81
2022/10/06 01:35:32;;;;;;;7.85;1.45;;;13.40;99.90;;;;;;5130650;27;20486;-81
2022/10/06 01:37:58;;;;;;;9.82;1.58;;;13.40;99.90;;;;;;5136197;27;20424;-81
2022/10/06 01:40:25;;;;;;;8.10;1.60;;;13.40;99.90;;;;;;5099727;27;20042;-81
2022/10/06 01:42:51;;;;;;;5.45;1.20;;;13.30;99.90;;;;;;5100390;27;20039;-81
2022/10/06 01:45:17;;;;;;;8.57;1.92;;;13.30;99.90;;;;;;5135471;27;20038;-80
2022/10/06 01:47:43;;;;;;;6.03;1.50;;;13.30;99.90;;;;;;5138308;27;20038;-81
2022/10/06 01:50:09;;;;;;;9.60;1.90;;;13.20;99.90;;;;;;5119026;27;20477;-81
2022/10/06 01:52:35;;;;;;;8.98;1.80;;;13.20;99.90;;;;;;5136891;27;20527;-81
2022/10/06 01:55:01;;;;;;;10.00;2.05;;;13.20;99.90;;;;;;5129643;27;20047;-81
2022/10/06 01:57:27;;;;;;;5.90;1.60;;;13.10;99.90;;;;;;5125229;27;20402;-81
2022/10/06 01:59:52;;;;;;;8.40;2.20;;;13.10;99.90;;;;;;5113918;27;20038;-81
2022/10/06 02:02:18;;;;;;;9.02;1.83;;;13.00;99.90;;;;;;5119967;27;20039;-80
2022/10/06 02:04:45;;;;;;;11.93;1.85;;;13.00;99.90;;;;;;5138326;27;20034;-82
2022/10/06 02:07:11;;;;;;;8.43;1.90;;;13.00;99.90;;;;;;5101060;28;20039;-81
2022/10/06 02:09:36;;;;;;;11.10;1.73;;;13.00;99.90;;;;;;5118473;27;20047;-81
2022/10/06 02:12:03;;;;;;;5.18;1.67;;;12.90;99.90;;;;;;5116645;27;20111;-81
2022/10/06 02:14:30;;;;;;;12.25;2.15;;;12.90;99.90;;;;;;5119141;27;20049;-81
2022/10/06 02:16:56;;;;;;;7.68;1.58;;;12.90;99.90;;;;;;5133236;27;20034;-81
2022/10/06 02:19:22;;;;;;;7.78;1.80;;;12.90;99.90;;;;;;5150881;27;20517;-81
2022/10/06 02:21:47;;;;;;;7.95;1.70;;;12.90;99.90;;;;;;5114716;27;20042;-81
2022/10/06 02:24:13;;;;;;;7.75;1.55;;;12.90;99.90;;;;;;5133866;27;20035;-81
2022/10/06 02:26:39;;;;;;;7.45;1.73;;;12.90;99.90;;;;;;5154941;27;20043;-81
2022/10/06 02:29:05;;;;;;;8.27;1.77;;;12.90;99.90;;;;;;5132850;27;20504;-81
2022/10/06 02:31:30;;;;;;;7.60;1.75;;;12.90;99.90;;;;;;5114246;27;20038;-81
2022/10/06 02:33:57;;;;;;;12.82;1.95;;;12.80;99.90;;;;;;5118947;27;20498;-81
2022/10/06 02:36:23;;;;;;;9.23;1.77;;;12.90;99.90;;;;;;5132761;27;20117;-81
2022/10/06 02:38:49;;;;;;;14.30;2.13;;;12.80;99.90;;;;;;5119837;27;20068;-81
2022/10/06 02:41:15;;;;;;;12.43;1.70;;;12.80;99.90;;;;;;5136638;27;20042;-82
2022/10/06 02:43:41;;;;;;;10.68;1.77;;;12.80;99.90;;;;;;5116012;27;20466;-81
2022/10/06 02:46:11;;;;;;;14.05;2.08;;;12.70;99.90;;;;;;5135469;27;20557;-80
2022/10/06 02:48:38;;;;;;;6.00;1.50;;;12.70;99.90;;;;;;5153486;27;20086;-80
2022/10/06 02:51:12;;;;;;;8.07;1.30;;;12.70;99.90;;;;;;5133029;27;20045;-81
2022/10/06 02:53:38;;;;;;;11.63;1.80;;;12.70;99.90;;;;;;5154215;27;20055;-80
2022/10/06 02:56:14;;;;;;;11.07;1.58;;;12.70;99.90;;;;;;5119504;27;20077;-81
2022/10/06 02:58:42;;;;;;;14.77;2.30;;;12.60;99.90;;;;;;5135371;27;20039;-81
2022/10/06 03:01:13;;;;;;;9.07;1.67;;;12.60;99.90;;;;;;5136033;27;20045;-81
2022/10/06 03:03:40;;;;;;;10.60;1.75;;;12.60;99.90;;;;;;5131577;27;20031;-81
2022/10/06 03:06:23;;;;;;;15.63;2.10;;;12.60;99.90;;;;;;5133054;27;20441;-81
2022/10/06 03:09:17;;;;;;;13.23;2.28;;;12.60;99.90;;;;;;5133086;27;20054;-82
2022/10/06 03:11:43;;;;;;;11.15;1.50;;;12.60;99.90;;;;;;5113781;27;20046;-81
2022/10/06 03:14:09;;;;;;;8.52;1.35;;;12.60;99.90;;;;;;5119489;27;20063;-81
2022/10/06 03:16:41;;;;;;;9.60;1.80;;;12.60;99.90;;;;;;5116813;27;20563;-81
2022/10/06 03:19:08;;;;;;;7.78;1.50;;;12.60;99.90;;;;;;5135869;27;20031;-81
2022/10/06 03:21:37;;;;;;;9.52;1.80;;;12.60;99.90;;;;;;5131095;27;20031;-81
2022/10/06 03:24:03;;;;;;;9.52;1.92;;;12.50;99.90;;;;;;5128891;27;20030;-82
2022/10/06 03:26:32;;;;;;;7.20;1.48;;;12.50;99.90;;;;;;5133545;27;20035;-81
2022/10/06 03:29:01;;;;;;;10.45;1.92;;;12.50;99.90;;;;;;5128311;27;20047;-81
2022/10/06 03:31:27;;;;;;;11.48;2.00;;;12.50;99.90;;;;;;5128443;27;20038;-81
2022/10/06 03:33:57;;;;;;;8.75;2.15;;;12.40;99.90;;;;;;5131255;27;20030;-81
2022/10/06 03:36:25;;;;;;;10.43;1.60;;;12.40;99.90;;;;;;5133505;27;20043;-80
2022/10/06 03:38:52;;;;;;;11.43;1.92;;;12.40;99.90;;;;;;5131717;27;20475;-80
2022/10/06 03:41:24;;;;;;;5.95;1.67;;;12.40;99.90;;;;;;5134303;27;20114;-81
2022/10/06 03:43:51;;;;;;;8.60;1.70;;;12.30;99.90;;;;;;5132021;27;20067;-81
2022/10/06 03:46:19;;;;;;;10.02;1.55;;;12.30;99.90;;;;;;5121536;27;20039;-81
2022/10/06 03:48:47;;;;;;;7.90;1.52;;;12.30;99.90;;;;;;5130340;27;20038;-81
2022/10/06 03:51:22;;;;;;;9.60;1.77;;;12.20;99.90;;;;;;5134111;27;20371;-80
2022/10/06 03:53:50;;;;;;;14.05;2.08;;;12.20;99.90;;;;;;5146052;27;20035;-81
2022/10/06 03:56:32;;;;;;;8.25;2.05;;;12.10;99.90;;;;;;5148272;27;20130;-81
2022/10/06 03:59:08;;;;;;;9.93;1.67;;;12.20;99.90;;;;;;5134328;27;20045;-81
2022/10/06 04:01:41;;;;;;;7.57;2.08;;;12.10;99.90;;;;;;5134449;27;20058;-81
2022/10/06 04:04:07;;;;;;;8.02;1.70;;;12.10;99.90;;;;;;5131527;27;20053;-81
2022/10/06 04:06:36;;;;;;;8.48;1.70;;;12.00;99.90;;;;;;5126234;27;20047;-81
2022/10/06 04:09:04;;;;;;;7.90;1.90;;;12.00;99.90;;;;;;5136106;27;20519;-81
2022/10/06 04:11:32;;;;;;;9.50;1.75;;;12.00;99.90;;;;;;5127825;27;20039;-81
2022/10/06 04:14:01;;;;;;;8.02;1.50;;;12.00;99.90;;;;;;5153001;27;20043;-81
2022/10/06 04:16:30;;;;;;;9.90;1.80;;;11.90;99.90;;;;;;5125884;27;20057;-81
2022/10/06 04:19:00;;;;;;;8.57;1.58;;;11.90;99.90;;;;;;5135482;27;20360;-80
2022/10/06 04:21:27;;;;;;;11.18;1.38;;;11.90;99.90;;;;;;5116063;27;20035;-81
2022/10/06 04:23:54;;;;;;;8.38;1.42;;;11.80;99.90;;;;;;5151680;27;20038;-81
2022/10/06 04:26:21;;;;;;;7.95;1.73;;;11.80;99.90;;;;;;5135457;27;20034;-81
2022/10/06 04:28:48;;;;;;;8.82;1.70;;;11.70;99.90;;;;;;5152584;27;20060;-81
2022/10/06 04:31:17;;;;;;;9.02;1.63;;;11.70;99.90;;;;;;5137801;27;20042;-79
2022/10/06 04:33:45;;;;;;;12.20;1.75;;;11.60;99.90;;;;;;5129725;27;20425;-79
2022/10/06 04:36:23;;;;;;;8.35;1.63;;;11.50;99.90;;;;;;5098565;27;20089;-79
2022/10/06 04:38:50;;;;;;;7.35;2.03;;;11.50;99.90;;;;;;5150134;27;20039;-80
2022/10/06 04:41:18;;;;;;;8.82;1.40;;;11.40;99.90;;;;;;5146309;27;20039;-80
2022/10/06 04:43:45;;;;;;;6.72;1.48;;;11.30;99.90;;;;;;5117218;27;20039;-80
2022/10/06 04:46:12;;;;;;;11.32;1.73;;;11.30;99.90;;;;;;5121976;27;20509;-80
2022/10/06 04:48:38;;;;;;;9.32;1.80;;;11.30;99.90;;;;;;5136265;27;20070;-79
2022/10/06 04:51:07;;;;;;;9.82;1.83;;;11.20;99.90;;;;;;5121798;27;20115;-80
2022/10/06 04:53:33;;;;;;;8.70;1.58;;;11.20;99.90;;;;;;5139878;27;20039;-80
2022/10/06 04:56:03;;;;;;;10.48;2.05;;;11.20;99.90;;;;;;5135242;27;21031;-80
2022/10/06 04:58:34;;;;;;;9.48;1.63;;;11.10;99.90;;;;;;5136999;27;20038;-81
2022/10/06 05:01:01;;;;;;;8.32;1.67;;;11.10;99.90;;;;;;5147903;27;20039;-80
2022/10/06 05:03:28;;;;;;;9.82;2.08;;;11.10;99.90;;;;;;5131732;27;20062;-79
2022/10/06 05:06:22;;;;;;;9.27;2.10;;;11.10;99.90;;;;;;5157444;27;20378;-80
2022/10/06 05:08:50;;;;;;;10.32;1.83;;;11.10;99.90;;;;;;5129681;27;20047;-79
2022/10/06 05:11:17;;;;;;;10.02;1.70;;;11.00;99.90;;;;;;5140154;27;20041;-80
2022/10/06 05:13:43;;;;;;;8.25;1.40;;;11.00;99.90;;;;;;5139824;27;20038;-80
2022/10/06 05:16:13;;;;;;;13.55;1.95;;;11.00;99.90;;;;;;5134388;27;20046;-80
2022/10/06 05:18:39;;;;;;;8.32;2.17;;;11.00;99.90;;;;;;5139234;27;20041;-80
2022/10/06 05:21:06;;;;;;;9.10;1.95;;;10.90;99.90;;;;;;5136741;27;20049;-80
2022/10/06 05:23:35;;;;;;;11.45;2.08;;;10.90;99.90;;;;;;5139365;27;20070;-80
2022/10/06 05:26:01;;;;;;;14.88;2.03;;;11.00;99.90;;;;;;5149550;27;20070;-80
2022/10/06 05:28:29;;;;;;;9.10;2.38;;;10.90;99.90;;;;;;5153385;27;20043;-81
2022/10/06 05:30:59;;;;;;;6.20;1.77;;;10.90;99.90;;;;;;5126990;27;20035;-80
2022/10/06 05:33:27;;;;;;;7.60;1.88;;;10.90;99.90;;;;;;5129920;27;20095;-81
2022/10/06 05:35:58;;;;;;;13.43;2.13;;;10.90;99.90;;;;;;5100973;27;20047;-80
2022/10/06 05:38:26;;;;;;;11.43;2.00;;;10.90;99.90;;;;;;5145453;27;20039;-80
2022/10/06 05:41:03;;;;;;;7.90;1.73;;;10.90;99.90;;;;;;5147642;27;20103;-80
2022/10/06 05:43:29;;;;;;;7.00;1.63;;;10.90;99.90;;;;;;5144113;27;20035;-80
2022/10/06 05:45:57;;;;;;;13.45;1.88;;;10.80;99.90;;;;;;5135262;27;20046;-80
2022/10/06 05:48:24;;;;;;;9.30;1.65;;;10.80;99.90;;;;;;5149363;27;20049;-81
2022/10/06 05:51:07;;;;;;;11.52;2.13;;;10.90;99.90;;;;;;5119644;27;20118;-79
2022/10/06 05:53:34;;;;;;;10.70;1.77;;;10.80;99.90;;;;;;5150735;27;20054;-79
2022/10/06 05:56:03;;;;;;;7.75;1.70;;;10.70;99.90;;;;;;5136076;27;20060;-80
2022/10/06 05:58:30;;;;;;;10.60;1.77;;;10.70;99.90;;;;;;5127949;27;20444;-80
2022/10/06 06:01:04;;;;;;;11.20;1.88;;;10.70;99.90;;;;;;5120931;27;20035;-80
2022/10/06 06:03:30;;;;;;;8.48;2.03;;;10.70;99.90;;;;;;5135397;27;20031;-81
2022/10/06 06:05:55;;;;;;;8.18;1.77;;;10.70;99.90;;;;;;5114445;27;20118;-80
2022/10/06 06:08:21;;;;;;;10.07;2.00;;;10.70;99.90;;;;;;5104524;27;20073;-80
2022/10/06 06:10:47;;;;;;;8.35;2.08;;;10.70;99.90;;;;;;5118116;27;20039;-81
2022/10/06 06:13:19;;;;;;;9.90;1.80;;;10.70;99.90;;;;;;5112563;27;20054;-81
2022/10/06 06:16:00;;;;;;;9.18;1.90;;;10.70;99.90;;;;;;5147950;27;20436;-80
2022/10/06 06:18:30;;;;;;;10.18;2.42;;;10.70;99.90;;;;;;5109344;27;20064;-81
2022/10/06 06:21:01;;;;;;;10.15;2.30;;;10.70;99.90;;;;;;5150857;27;20081;-82
2022/10/06 06:23:33;;;;;;;14.73;2.15;;;10.70;99.90;;;;;;5135369;27;20037;-81
2022/10/06 06:26:02;;;;;;;9.52;1.80;;;10.70;99.90;;;;;;5150351;27;20038;-80
2022/10/06 06:28:28;;;;;;;9.68;2.15;;;10.80;99.90;;;;;;5155160;27;20062;-81
2022/10/06 06:31:08;;;;;;;8.25;1.98;;;10.80;99.90;;;;;;5125552;27;20043;-81
2022/10/06 06:33:39;;;;;;;10.48;2.00;;;10.80;99.90;;;;;;5146880;27;20074;-81
2022/10/06 06:36:34;;;;;;;6.50;1.98;;;10.80;99.90;;;;;;5132662;27;20042;-81
2022/10/06 06:39:01;;;;;;;11.95;2.05;;;10.80;99.90;;;;;;5130183;27;20038;-80
2022/10/06 06:41:38;;;;;;;10.88;2.00;;;10.90;99.90;;;;;;5134630;27;20031;-81
2022/10/06 06:44:10;;;;;;;15.60;1.90;;;10.90;99.90;;;;;;5133934;27;20482;-80
2022/10/06 06:46:36;;;;;;;11.45;1.92;;;10.90;99.90;;;;;;5139093;27;20039;-80
2022/10/06 06:49:03;;;;;;;13.77;2.10;;;10.90;99.90;;;;;;5131329;27;20031;-79
2022/10/06 06:51:32;;;;;;;8.10;1.95;;;11.00;99.90;;;;;;5103495;27;20080;-80
2022/10/06 06:53:59;;;;;;;9.05;1.90;;;11.00;99.90;;;;;;5129248;27;20506;-82
2022/10/06 06:56:25;;;;;;;9.70;1.83;;;11.00;99.90;;;;;;5134370;27;20046;-80
2022/10/06 06:58:51;;;;;;;10.63;1.92;;;11.00;99.90;;;;;;5144595;27;20410;-81
2022/10/06 07:01:20;;;;;;;11.48;1.98;;;11.00;99.90;;;;;;5118408;27;20371;-78
2022/10/06 07:03:51;;;;;;;11.65;1.58;;;11.00;99.90;;;;;;5151550;27;20039;-80
2022/10/06 07:06:17;;;;;;;10.43;2.05;;;11.10;99.90;;;;;;5132257;27;20039;-80
2022/10/06 07:08:45;;;;;;;11.88;2.30;;;11.10;99.90;;;;;;5151140;27;20122;-81
2022/10/06 07:11:18;;;;;;;12.55;1.58;;;11.20;99.90;;;;;;5147631;27;20030;-79
2022/10/06 07:13:45;;;;;;;8.05;2.08;;;11.20;99.90;;;;;;5126318;27;20066;-82
2022/10/06 07:27:28;;;;;;;9.07;2.30;;;11.30;99.90;;;;;;5149896;27;19915;-81
2022/10/06 07:29:55;;;;;;;13.75;2.20;;;11.40;99.90;;;;;;5119163;27;20398;-81
2022/10/06 07:32:22;;;;;;;7.95;1.98;;;11.40;99.90;;;;;;5113083;27;20095;-84
2022/10/06 07:34:48;;;;;;;10.15;1.90;;;11.50;99.90;;;;;;5147701;27;20049;-81
2022/10/06 07:37:14;;;;;;;10.10;2.30;;;11.60;99.90;;;;;;5142876;27;20049;-80
2022/10/06 07:39:40;;;;;;;10.65;2.17;;;11.60;99.90;;;;;;5115082;27;20440;-81
2022/10/06 07:42:13;;;;;;;11.50;2.53;;;11.70;99.90;;;;;;5128841;27;20088;-80
2022/10/06 07:47:36;;;;;;;12.43;2.25;;;11.80;99.90;;;;;;5135453;27;20383;-81
2022/10/06 07:50:04;;;;;;;9.65;2.00;;;11.80;99.90;;;;;;5147836;27;20040;-81
2022/10/06 07:52:30;;;;;;;10.43;2.42;;;11.80;99.90;;;;;;5144706;27;20121;-81
2022/10/06 07:54:57;;;;;;;8.70;2.08;;;11.90;99.90;;;;;;5152843;27;20575;-81
2022/10/06 07:57:25;;;;;;;13.23;1.95;;;12.00;99.90;;;;;;5134351;27;20066;-81
2022/10/06 07:59:51;;;;;;;12.90;2.10;;;12.00;99.90;;;;;;5148401;27;20035;-81
2022/10/06 08:02:18;;;;;;;12.57;2.15;;;12.30;99.90;;;;;;5134208;27;20037;-81
2022/10/06 08:04:44;;;;;;;12.15;2.53;;;12.10;99.90;;;;;;5117711;27;20031;-79
2022/10/06 08:07:11;;;;;;;9.45;1.75;;;12.20;99.90;;;;;;5117912;27;20083;-79
2022/10/06 08:09:37;;;;;;;9.85;1.80;;;12.20;99.90;;;;;;5150754;27;20099;-82
2022/10/06 08:12:31;;;;;;;11.52;2.60;;;12.20;99.90;;;;;;5117763;27;20043;-81
2022/10/06 08:14:48;;;;;;;12.15;2.08;;;12.20;99.90;;;;;;5134891;27;20481;-80
2022/10/06 08:17:15;;;;;;;14.57;1.92;;;12.30;99.90;;;;;;5119082;27;20066;-81
2022/10/06 08:19:40;;;;;;;13.07;1.92;;;12.30;99.90;;;;;;5117832;27;20046;-81
2022/10/06 08:22:06;;;;;;;15.85;2.50;;;12.40;99.90;;;;;;5150614;27;20034;-81
2022/10/06 08:24:32;;;;;;;12.60;1.98;;;12.40;99.90;;;;;;5120343;27;20424;-82
2022/10/06 08:26:57;;;;;;;17.20;2.10;;;12.40;99.90;;;;;;5134337;27;20065;-81
2022/10/06 08:29:23;;;;;;;11.93;1.67;;;12.50;99.90;;;;;;5116365;27;20114;-80
2022/10/06 08:31:49;;;;;;;10.52;1.95;;;12.60;99.90;;;;;;5136191;27;20042;-80
2022/10/06 08:34:14;;;;;;;14.82;1.98;;;12.60;99.90;;;;;;5117495;27;20138;-80
2022/10/06 08:36:42;;;;;;;11.15;1.90;;;12.60;99.90;;;;;;5113816;27;20043;-80
2022/10/06 08:39:08;;;;;;;13.70;2.20;;;12.70;99.90;;;;;;5133155;27;20482;-81
2022/10/06 08:41:48;;;;;;;10.73;2.03;;;12.70;99.90;;;;;;5154580;27;20039;-82
2022/10/06 08:44:18;;;;;;;11.07;1.85;;;12.80;99.90;;;;;;5141656;27;20035;-81
2022/10/06 08:47:00;;;;;;;10.70;2.20;;;12.90;99.90;;;;;;5153682;27;20494;-80
2022/10/06 08:49:36;;;;;;;11.85;2.15;;;12.90;99.90;;;;;;5147839;27;20042;-80
2022/10/06 08:52:26;;;;;;;11.95;2.17;;;13.00;99.90;;;;;;5133542;27;20065;-80
2022/10/06 08:55:15;;;;;;;11.45;1.83;;;13.00;99.90;;;;;;5136697;27;20059;-80
2022/10/06 08:58:03;;;;;;;15.57;1.95;;;13.10;99.90;;;;;;5134427;27;20039;-80
2022/10/06 09:00:32;;;;;;;16.40;2.20;;;13.10;99.90;;;;;;5126266;27;20032;-79
2022/10/06 09:02:59;;;;;;;10.60;1.73;;;13.20;99.90;;;;;;5131282;27;20553;-79
2022/10/06 09:05:27;;;;;;;12.27;2.58;;;13.30;99.90;;;;;;5129485;27;20364;-78
2022/10/06 09:08:23;;;;;;;9.07;2.17;;;13.30;99.90;;;;;;5148879;27;20047;-79
2022/10/06 09:11:09;;;;;;;10.73;1.92;;;13.40;99.90;;;;;;5136058;27;20035;-80
2022/10/06 09:13:41;;;;;;;13.75;1.88;;;13.40;99.90;;;;;;5129711;27;20035;-81
2022/10/06 09:16:12;;;;;;;10.45;2.22;;;13.50;99.90;;;;;;5150298;27;20543;-80
2022/10/06 09:18:48;;;;;;;14.50;2.50;;;13.50;99.90;;;;;;5153272;27;20062;-80
2022/10/06 09:21:18;;;;;;;;;;;13.60;99.90;;;;;;5132339;27;20035;-80
2022/10/06 09:23:52;;;;;;;9.48;2.40;;;13.60;99.90;;;;;;5152487;27;20406;-81
2022/10/06 09:26:31;;;;;;;14.10;2.10;;;13.70;99.90;;;;;;5156853;27;20131;-81
2022/10/06 09:28:57;;;;;;;11.95;1.95;;;13.70;99.90;;;;;;5141802;27;20069;-81
2022/10/06 09:31:27;;;;;;;11.82;2.42;;;13.80;99.90;;;;;;5115875;27;20043;-81
2022/10/06 09:33:58;;;;;;;14.45;3.08;;;13.90;99.90;;;;;;5150882;27;20045;-81
2022/10/06 09:36:24;;;;;;;10.05;2.10;;;14.00;99.90;;;;;;5139169;27;20122;-81
2022/10/06 09:38:54;;;;;;;10.00;2.00;;;14.10;99.90;;;;;;5137370;27;20109;-81
2022/10/06 09:41:24;;;;;;;11.20;2.20;;;14.10;99.90;;;;;;5152372;27;20106;-81
2022/10/06 09:44:00;;;;;;;14.23;2.10;;;14.10;99.90;;;;;;5152474;27;20177;-81
2022/10/06 09:46:32;;;;;;;9.38;1.95;;;14.20;99.90;;;;;;5152698;27;20047;-81
2022/10/06 09:49:18;;;;;;;12.75;2.20;;;14.20;99.90;;;;;;5134712;27;20038;-82
2022/10/06 09:51:53;;;;;;;;;;;14.40;99.90;;;;;;5132159;27;20506;-81
2022/10/06 09:54:19;;;;;;;11.68;1.90;;;14.40;99.90;;;;;;5139991;27;19919;-81
2022/10/06 09:56:46;;;;;;;12.63;2.58;;;14.50;99.90;;;;;;5125517;27;20057;-81
2022/10/06 09:59:29;;;;;;;11.32;2.50;;;14.60;99.90;;;;;;5147860;27;20447;-81
2022/10/06 10:01:58;;;;;;;10.55;2.13;;;14.70;99.90;;;;;;5152367;27;20031;-81
2022/10/06 10:04:34;;;;;;;9.77;1.88;;;14.70;99.90;;;;;;5136843;27;20042;-81
2022/10/06 10:07:14;;;;;;;9.52;2.00;;;14.70;99.90;;;;;;5148749;27;20043;-81
2022/10/06 10:09:41;;;;;;;9.48;2.20;;;14.70;99.90;;;;;;5121789;27;20046;-81
2022/10/06 10:12:23;;;;;;;9.93;2.10;;;14.60;99.90;;;;;;5096456;27;20049;-81
2022/10/06 10:14:49;;;;;;;8.50;2.05;;;14.70;99.90;;;;;;5133947;27;20043;-81
2022/10/06 10:17:36;;;;;;;13.23;2.03;;;14.60;99.90;;;;;;5135787;27;20046;-80
2022/10/06 10:20:18;;;;;;;8.68;1.83;;;14.60;99.90;;;;;;5135734;27;20043;-81
2022/10/06 10:22:46;;;;;;;12.65;1.80;;;14.60;99.90;;;;;;5135646;27;20490;-80
2022/10/06 10:25:40;;;;;;;8.88;2.45;;;14.50;99.90;;;;;;5136982;27;20050;-80
2022/10/06 10:28:16;;;;;;;13.13;2.58;;;14.50;99.90;;;;;;5132240;27;20121;-80
2022/10/06 10:31:24;;;;;;;8.80;1.90;;;14.50;99.90;;;;;;5149232;27;20082;-81
2022/10/06 10:34:34;;;;;;;11.35;1.58;;;14.50;99.90;;;;;;5132121;27;20050;-80
2022/10/06 10:37:07;;;;;;;11.40;2.13;;;14.50;99.90;;;;;;5130959;27;20054;-81
2022/10/06 10:39:51;;;;;;;13.45;2.00;;;14.50;99.90;;;;;;5151170;27;20442;-79
2022/10/06 10:42:23;;;;;;;8.93;2.10;;;14.50;99.90;;;;;;5128307;27;20035;-79
2022/10/06 10:44:58;;;;;;;7.75;1.70;;;14.60;99.90;;;;;;5145147;27;20070;-79
2022/10/06 10:47:33;;;;;;;9.50;1.80;;;14.70;99.90;;;;;;5134048;27;20038;-77
2022/10/06 10:50:10;;;;;;;7.97;2.15;;;14.70;99.90;;;;;;5136419;27;20038;-78
2022/10/06 10:52:40;;;;;;;7.45;1.95;;;14.80;99.90;;;;;;5131587;27;20102;-79
2022/10/06 10:55:34;;;;;;;6.90;1.65;;;14.90;99.90;;;;;;5147164;27;20054;-79
2022/10/06 10:58:13;;;;;;;8.45;1.60;;;14.90;99.90;;;;;;5153046;27;20538;-79
2022/10/06 11:00:43;;;;;;;8.95;1.80;;;14.90;99.90;;;;;;5136726;27;20536;-80
2022/10/06 11:03:10;;;;;;;9.07;1.40;;;14.90;99.90;;;;;;5136206;27;20035;-80
2022/10/06 11:06:32;;;;;;;12.45;1.67;;;14.90;99.90;;;;;;5100606;27;20035;-79
2022/10/06 11:09:07;;;;;;;10.60;2.22;;;14.90;99.90;;;;;;5081738;27;20036;-79
2022/10/06 11:11:36;;;;;;;9.73;1.52;;;14.90;99.90;;;;;;5134411;27;20064;-79
2022/10/06 11:14:14;;;;;;;9.57;1.98;;;15.00;99.90;;;;;;5150121;27;20035;-79
2022/10/06 11:17:14;;;;;;;9.52;1.75;;;15.10;99.90;;;;;;5128403;27;20043;-79
2022/10/06 11:19:46;;;;;;;5.65;1.25;;;15.10;99.90;;;;;;5133349;27;20047;-79
2022/10/06 11:22:35;;;;;;;7.43;1.73;;;15.10;99.90;;;;;;5153032;27;20494;-79
2022/10/06 11:25:25;;;;;;;8.35;1.45;;;15.10;99.90;;;;;;5128867;27;20084;-79
2022/10/06 11:28:18;;;;;;;7.25;1.30;;;15.20;99.90;;;;;;5125415;27;20141;-79
2022/10/06 11:30:59;;;;;;;8.13;1.58;;;15.20;99.90;;;;;;5131483;27;20070;-79
2022/10/06 11:33:45;;;;;;;11.07;1.70;;;15.30;99.90;;;;;;5142330;27;20582;-79
2022/10/06 11:36:50;;;;;;;5.50;1.10;;;15.40;99.90;;;;;;5125499;27;20520;-80
2022/10/06 11:39:58;;;;;;;5.82;1.23;;;15.50;99.90;;;;;;5143904;27;20045;-80
2022/10/06 11:42:27;;;;;;;8.55;1.65;;;15.50;99.90;;;;;;5149369;27;20034;-80
2022/10/06 11:45:02;;;;;;;6.43;1.27;;;15.50;99.90;;;;;;5150118;27;20030;-80
2022/10/06 11:47:41;;;;;;;8.63;1.42;;;15.50;99.90;;;;;;5132580;27;20091;-80
2022/10/06 11:50:41;;;;;;;7.57;1.30;;;15.60;99.90;;;;;;5152570;27;20038;-79
2022/10/06 11:53:24;;;;;;;4.53;1.67;;;15.60;99.90;;;;;;5128241;27;20046;-80
2022/10/06 11:56:15;;;;;;;7.97;1.58;;;15.60;99.90;;;;;;5132005;27;20391;-80
2022/10/06 11:58:53;;;;;;;7.68;1.30;;;15.60;99.90;;;;;;5126021;27;20047;-80
2022/10/06 12:01:33;;;;;;;10.00;1.40;;;15.60;99.90;;;;;;5146641;27;20039;-79
2022/10/06 12:04:08;;;;;;;6.13;1.27;;;15.60;99.90;;;;;;5123839;27;20066;-80
2022/10/06 12:06:46;;;;;;;11.88;1.85;;;15.70;99.90;;;;;;5131469;27;20087;-81
2022/10/06 12:09:36;;;;;;;8.73;1.60;;;15.70;99.90;;;;;;5128313;27;20033;-79
2022/10/06 12:12:24;;;;;;;5.15;1.65;;;15.70;99.90;;;;;;5129112;27;20432;-80
2022/10/06 12:15:35;;;;;;;4.30;1.00;;;15.80;99.90;;;;;;5131603;27;20486;-80
2022/10/06 12:18:15;;;;;;;9.45;1.40;;;15.80;99.90;;;;;;5065346;28;20101;-80
2022/10/06 12:20:56;;;;;;;7.93;1.50;;;15.80;99.90;;;;;;5123042;27;20054;-80
2022/10/06 12:23:33;;;;;;;8.40;1.33;;;15.80;99.90;;;;;;5127376;27;20049;-81
2022/10/06 12:26:25;;;;;;;5.15;1.08;;;15.80;99.90;;;;;;5147788;27;20130;-81
2022/10/06 12:29:17;;;;;;;4.10;1.10;;;15.90;99.90;;;;;;5144772;27;20055;-81
2022/10/06 12:32:17;;;;;;;8.30;1.30;;;15.90;99.90;;;;;;5133346;27;20049;-80
2022/10/06 12:34:57;;;;;;;4.90;1.48;;;16.00;99.90;;;;;;5131513;27;20123;-81
2022/10/06 12:37:33;;;;;;;5.82;1.33;;;16.00;99.90;;;;;;5128394;27;20100;-81
2022/10/06 12:40:36;;;;;;;6.32;1.60;;;16.00;99.90;;;;;;5147481;27;20102;-80
2022/10/06 12:43:17;;;;;;;6.93;1.85;;;16.00;99.90;;;;;;5133095;27;20041;-80
2022/10/06 12:45:59;;;;;;;9.30;1.60;;;16.00;99.90;;;;;;5146198;27;20482;-80
2022/10/06 12:48:42;;;;;;;5.53;1.33;;;16.00;99.90;;;;;;5147587;27;20039;-80
2022/10/06 12:51:37;;;;;;;7.00;1.33;;;16.00;99.90;;;;;;5141877;27;20064;-80
2022/10/06 12:54:12;;;;;;;8.40;1.48;;;16.00;99.90;;;;;;5148219;27;20577;-81
2022/10/06 12:56:40;;;;;;;7.80;1.90;;;16.00;99.90;;;;;;5130514;27;20054;-80
2022/10/06 12:59:21;;;;;;;9.50;1.48;;;16.10;99.90;;;;;;5130323;27;20030;-80
2022/10/06 13:01:49;;;;;;;9.15;1.55;;;16.20;99.90;;;;;;5141287;27;20095;-80
2022/10/06 13:04:34;;;;;;;8.70;1.70;;;16.20;99.90;;;;;;5139729;27;20081;-80
2022/10/06 13:07:25;;;;;;;9.73;1.48;;;16.30;99.90;;;;;;5134476;27;20130;-80
2022/10/06 13:10:16;;;;;;;7.45;1.50;;;16.40;99.90;;;;;;5132729;27;20050;-80
2022/10/06 13:12:45;;;;;;;8.30;1.52;;;16.40;99.90;;;;;;5137113;27;20085;-80
2022/10/06 13:15:26;;;;;;;8.73;1.80;;;16.40;99.90;;;;;;5155332;27;20447;-80
2022/10/06 13:18:09;;;;;;;8.07;1.38;;;16.40;99.90;;;;;;5158320;27;20514;-81
2022/10/06 13:20:50;;;;;;;8.18;1.40;;;16.40;99.90;;;;;;5147369;27;20049;-81
2022/10/06 13:23:31;;;;;;;7.25;1.55;;;16.40;99.90;;;;;;5156362;27;20490;-81
2022/10/06 13:26:13;;;;;;;5.32;1.50;;;16.40;99.90;;;;;;5135352;27;20133;-81